Time,TemperatureF,DewpointF,PressureIn,WindDirection,WindDirectionDegrees,WindSpeedMPH,WindSpeedGustMPH,Humidity,HourlyPrecipIn,Conditions,Clouds,dailyrainin,SoftwareType,DateUTC
2013-05-16 00:08:00,62.0,56.0,29.94,WSW,245,0.0,2.0,82,0.00,,,0.00,weatherlink.com 1.10,2013-05-16 07:08:00,
2013-05-16 00:23:00,62.4,57.0,29.94,WSW,238,0.0,4.0,81,0.00,,,0.00,weatherlink.com 1.10,2013-05-16 07:23:00,
2013-05-16 00:38:00,62.9,57.0,29.94,SW,235,1.0,4.0,80,0.00,,,0.00,weatherlink.com 1.10,2013-05-16 07:38:00,
2013-05-16 00:53:00,63.2,56.0,29.94,SE,144,0.0,5.0,78,0.00,,,0.00,weatherlink.com 1.10,2013-05-16 07:53:00,
2013-05-16 01:08:00,63.3,56.0,29.93,ESE,118,1.0,5.0,76,0.00,,,0.00,weatherlink.com 1.10,2013-05-16 08:08:00,
2013-05-16 01:23:00,63.4,55.0,29.93,SE,128,5.0,5.0,75,0.00,,,0.00,weatherlink.com 1.10,2013-05-16 08:23:00,
2013-05-16 01:38:00,63.3,55.0,29.93,SW,220,1.0,5.0,75,0.00,,,0.00,weatherlink.com 1.10,2013-05-16 08:38:00,
2013-05-16 01:53:00,63.4,55.0,29.93,ESE,121,2.0,5.0,74,0.00,,,0.00,weatherlink.com 1.10,2013-05-16 08:53:00,
2013-05-16 02:08:00,63.2,55.0,29.93,ESE,103,1.0,4.0,74,0.00,,,0.00,weatherlink.com 1.10,2013-05-16 09:08:00,
2013-05-16 02:23:00,63.4,55.0,29.92,SE,131,1.0,5.0,74,0.00,,,0.00,weatherlink.com 1.10,2013-05-16 09:23:00,
2013-05-16 02:38:00,63.5,55.0,29.92,East,93,1.0,4.0,74,0.00,,,0.00,weatherlink.com 1.10,2013-05-16 09:38:00,
2013-05-16 02:53:00,63.5,55.0,29.92,East,91,0.0,2.0,74,0.00,,,0.00,weatherlink.com 1.10,2013-05-16 09:53:00,
2013-05-16 03:08:00,63.6,55.0,29.92,SSE,153,0.0,3.0,74,0.00,,,0.00,weatherlink.com 1.10,2013-05-16 10:08:00,
2013-05-16 03:23:00,63.7,55.0,29.91,SE,144,4.0,5.0,73,0.00,,,0.00,weatherlink.com 1.10,2013-05-16 10:23:00,
2013-05-16 03:38:00,63.7,55.0,29.91,SE,144,3.0,5.0,73,0.00,,,0.00,weatherlink.com 1.10,2013-05-16 10:38:00,
2013-05-16 03:53:00,63.6,55.0,29.91,ESE,115,1.0,4.0,73,0.00,,,0.00,weatherlink.com 1.10,2013-05-16 10:53:00,
2013-05-16 04:08:00,63.4,55.0,29.91,SSE,153,2.0,5.0,73,0.00,,,0.00,weatherlink.com 1.10,2013-05-16 11:08:00,
2013-05-16 04:23:00,63.2,55.0,29.91,SE,128,2.0,3.0,74,0.00,,,0.00,weatherlink.com 1.10,2013-05-16 11:23:00,
2013-05-16 04:38:00,63.5,55.0,29.91,ESE,115,1.0,3.0,73,0.00,,,0.00,weatherlink.com 1.10,2013-05-16 11:38:00,
2013-05-16 04:53:00,63.5,55.0,29.91,SSE,155,2.0,4.0,73,0.00,,,0.00,weatherlink.com 1.10,2013-05-16 11:53:00,
2013-05-16 05:08:00,63.5,55.0,29.91,SSE,163,1.0,4.0,73,0.00,,,0.00,weatherlink.com 1.10,2013-05-16 12:08:00,
2013-05-16 05:23:00,63.5,55.0,29.91,SE,131,0.0,6.0,73,0.00,,,0.00,weatherlink.com 1.10,2013-05-16 12:23:00,
2013-05-16 05:38:00,63.4,54.0,29.92,ESE,123,1.0,4.0,72,0.00,,,0.00,weatherlink.com 1.10,2013-05-16 12:38:00,
2013-05-16 05:53:00,63.5,54.0,29.92,ESE,111,0.0,4.0,72,0.00,,,0.00,weatherlink.com 1.10,2013-05-16 12:53:00,
2013-05-16 06:08:00,63.4,55.0,29.93,ESE,107,1.0,3.0,73,0.00,,,0.00,weatherlink.com 1.10,2013-05-16 13:08:00,
2013-05-16 06:23:00,63.4,54.0,29.93,East,101,1.0,3.0,72,0.00,,,0.00,weatherlink.com 1.10,2013-05-16 13:23:00,
2013-05-16 06:38:00,63.5,54.0,29.93,SE,130,0.0,2.0,72,0.00,,,0.00,weatherlink.com 1.10,2013-05-16 13:38:00,
2013-05-16 06:53:00,63.7,55.0,29.93,SE,129,0.0,2.0,72,0.00,,,0.00,weatherlink.com 1.10,2013-05-16 13:53:00,
2013-05-16 07:08:00,64.0,55.0,29.93,SE,124,0.0,1.0,72,0.00,,,0.00,weatherlink.com 1.10,2013-05-16 14:08:00,
2013-05-16 07:24:00,64.2,55.0,29.93,ESE,103,1.0,2.0,71,0.00,,,0.00,weatherlink.com 1.10,2013-05-16 14:24:00,
2013-05-16 07:39:00,64.5,55.0,29.93,ESE,108,0.0,1.0,71,0.00,,,0.00,weatherlink.com 1.10,2013-05-16 14:39:00,
2013-05-16 07:54:00,64.7,55.0,29.94,ESE,110,0.0,2.0,70,0.00,,,0.00,weatherlink.com 1.10,2013-05-16 14:54:00,
2013-05-16 08:09:00,64.9,55.0,29.94,ESE,115,2.0,4.0,71,0.00,,,0.00,weatherlink.com 1.10,2013-05-16 15:09:00,
2013-05-16 08:24:00,65.2,55.0,29.93,ESE,109,2.0,4.0,70,0.00,,,0.00,weatherlink.com 1.10,2013-05-16 15:24:00,
2013-05-16 08:39:00,65.4,56.0,29.94,SSW,203,1.0,3.0,72,0.00,,,0.00,weatherlink.com 1.10,2013-05-16 15:39:00,
2013-05-16 08:54:00,65.4,57.0,29.94,SW,216,4.0,4.0,73,0.00,,,0.00,weatherlink.com 1.10,2013-05-16 15:54:00,
2013-05-16 09:09:00,65.7,56.0,29.94,SSE,153,0.0,5.0,70,0.00,,,0.00,weatherlink.com 1.10,2013-05-16 16:09:00,
2013-05-16 09:24:00,65.6,56.0,29.94,SW,224,0.0,6.0,72,0.00,,,0.00,weatherlink.com 1.10,2013-05-16 16:24:00,
2013-05-16 09:39:00,65.8,56.0,29.95,WSW,243,2.0,4.0,70,0.00,,,0.00,weatherlink.com 1.10,2013-05-16 16:39:00,
2013-05-16 09:54:00,66.1,56.0,29.95,SE,136,3.0,4.0,70,0.00,,,0.00,weatherlink.com 1.10,2013-05-16 16:54:00,
2013-05-16 10:09:00,66.4,56.0,29.95,SSW,203,2.0,5.0,69,0.00,,,0.00,weatherlink.com 1.10,2013-05-16 17:09:00,
2013-05-16 10:24:00,66.8,55.0,29.95,WSW,245,0.0,4.0,67,0.00,,,0.00,weatherlink.com 1.10,2013-05-16 17:24:00,
2013-05-16 10:39:00,67.2,55.0,29.95,WSW,249,4.0,5.0,66,0.00,,,0.00,weatherlink.com 1.10,2013-05-16 17:39:00,
2013-05-16 10:54:00,67.2,55.0,29.95,WSW,238,2.0,4.0,66,0.00,,,0.00,weatherlink.com 1.10,2013-05-16 17:54:00,
2013-05-16 11:09:00,68.0,56.0,29.95,SW,227,1.0,5.0,65,0.00,,,0.00,weatherlink.com 1.10,2013-05-16 18:09:00,
2013-05-16 11:24:00,68.9,56.0,29.94,SE,142,4.0,6.0,64,0.00,,,0.00,weatherlink.com 1.10,2013-05-16 18:24:00,
2013-05-16 11:39:00,69.7,56.0,29.94,East,87,3.0,5.0,62,0.00,,,0.00,weatherlink.com 1.10,2013-05-16 18:39:00,
2013-05-16 11:54:00,71.0,56.0,29.94,SSW,203,2.0,6.0,59,0.00,,,0.00,weatherlink.com 1.10,2013-05-16 18:54:00,
2013-05-16 12:09:00,70.4,56.0,29.94,SW,234,1.0,6.0,61,0.00,,,0.00,weatherlink.com 1.10,2013-05-16 19:09:00,
2013-05-16 12:24:00,70.8,56.0,29.93,SW,222,0.0,5.0,60,0.00,,,0.00,weatherlink.com 1.10,2013-05-16 19:24:00,
2013-05-16 12:39:00,70.2,56.0,29.93,West,270,1.0,6.0,61,0.00,,,0.00,weatherlink.com 1.10,2013-05-16 19:39:00,
2013-05-16 12:54:00,70.5,56.0,29.93,West,274,4.0,8.0,60,0.00,,,0.00,weatherlink.com 1.10,2013-05-16 19:54:00,
2013-05-16 13:09:00,70.3,57.0,29.92,West,259,4.0,7.0,63,0.00,,,0.00,weatherlink.com 1.10,2013-05-16 20:09:00,
2013-05-16 13:24:00,71.3,57.0,29.92,SW,227,5.0,9.0,61,0.00,,,0.00,weatherlink.com 1.10,2013-05-16 20:24:00,
2013-05-16 13:39:00,71.7,57.0,29.91,WSW,248,3.0,9.0,60,0.00,,,0.00,weatherlink.com 1.10,2013-05-16 20:39:00,
2013-05-16 13:54:00,71.8,57.0,29.91,SSW,205,2.0,8.0,60,0.00,,,0.00,weatherlink.com 1.10,2013-05-16 20:54:00,
2013-05-16 14:09:00,71.8,57.0,29.90,WSW,240,4.0,6.0,60,0.00,,,0.00,weatherlink.com 1.10,2013-05-16 21:09:00,
2013-05-16 14:24:00,72.2,57.0,29.90,West,279,2.0,9.0,59,0.00,,,0.00,weatherlink.com 1.10,2013-05-16 21:24:00,
2013-05-16 14:39:00,72.9,57.0,29.89,WNW,295,2.0,9.0,58,0.00,,,0.00,weatherlink.com 1.10,2013-05-16 21:39:00,
2013-05-16 14:54:00,73.5,57.0,29.89,WSW,243,3.0,8.0,56,0.00,,,0.00,weatherlink.com 1.10,2013-05-16 21:54:00,
2013-05-16 15:09:00,74.0,57.0,29.88,WSW,256,4.0,9.0,55,0.00,,,0.00,weatherlink.com 1.10,2013-05-16 22:09:00,
2013-05-16 15:24:00,74.0,57.0,29.87,WNW,288,4.0,7.0,56,0.00,,,0.00,weatherlink.com 1.10,2013-05-16 22:24:00,
2013-05-16 15:39:00,74.3,57.0,29.87,WSW,241,4.0,11.0,55,0.00,,,0.00,weatherlink.com 1.10,2013-05-16 22:39:00,
2013-05-16 15:54:00,73.8,57.0,29.86,ESE,120,9.0,10.0,56,0.00,,,0.00,weatherlink.com 1.10,2013-05-16 22:54:00,
2013-05-16 16:09:00,74.0,57.0,29.86,SW,236,7.0,12.0,55,0.00,,,0.00,weatherlink.com 1.10,2013-05-16 23:09:00,
2013-05-16 16:24:00,73.6,57.0,29.86,SSW,199,4.0,10.0,57,0.00,,,0.00,weatherlink.com 1.10,2013-05-16 23:24:00,
2013-05-16 16:39:00,73.3,57.0,29.86,West,281,6.0,11.0,57,0.00,,,0.00,weatherlink.com 1.10,2013-05-16 23:39:00,
2013-05-16 16:54:00,72.0,57.0,29.87,NW,323,1.0,8.0,60,0.00,,,0.00,weatherlink.com 1.10,2013-05-16 23:54:00,
2013-05-16 17:09:00,72.4,58.0,29.86,WNW,288,4.0,10.0,60,0.00,,,0.00,weatherlink.com 1.10,2013-05-17 00:09:00,
2013-05-16 17:24:00,71.5,57.0,29.86,WSW,248,4.0,8.0,61,0.00,,,0.00,weatherlink.com 1.10,2013-05-17 00:24:00,
2013-05-16 17:39:00,69.8,57.0,29.86,WNW,292,5.0,8.0,64,0.00,,,0.00,weatherlink.com 1.10,2013-05-17 00:39:00,
2013-05-16 17:54:00,68.2,57.0,29.87,WNW,292,6.0,9.0,67,0.00,,,0.00,weatherlink.com 1.10,2013-05-17 00:54:00,
2013-05-16 18:09:00,67.7,56.0,29.87,WNW,288,6.0,11.0,67,0.00,,,0.00,weatherlink.com 1.10,2013-05-17 01:09:00,
2013-05-16 18:24:00,67.2,56.0,29.87,West,269,1.0,9.0,68,0.00,,,0.00,weatherlink.com 1.10,2013-05-17 01:24:00,
2013-05-16 18:39:00,66.9,56.0,29.87,West,277,2.0,8.0,69,0.00,,,0.00,weatherlink.com 1.10,2013-05-17 01:39:00,
2013-05-16 18:54:00,66.9,56.0,29.87,WSW,255,6.0,7.0,68,0.00,,,0.00,weatherlink.com 1.10,2013-05-17 01:54:00,
2013-05-16 19:09:00,66.5,56.0,29.88,NW,323,5.0,7.0,69,0.00,,,0.00,weatherlink.com 1.10,2013-05-17 02:09:00,
2013-05-16 19:24:00,65.9,55.0,29.88,West,276,2.0,8.0,69,0.00,,,0.00,weatherlink.com 1.10,2013-05-17 02:24:00,
2013-05-16 19:39:00,65.5,55.0,29.88,NNW,348,1.0,8.0,70,0.00,,,0.00,weatherlink.com 1.10,2013-05-17 02:39:00,
2013-05-16 19:54:00,65.3,55.0,29.88,West,279,1.0,3.0,70,0.00,,,0.00,weatherlink.com 1.10,2013-05-17 02:54:00,
2013-05-16 20:09:00,65.0,55.0,29.88,WNW,290,1.0,3.0,71,0.00,,,0.00,weatherlink.com 1.10,2013-05-17 03:09:00,
2013-05-16 20:25:00,64.8,55.0,29.88,WNW,285,0.0,2.0,71,0.00,,,0.00,weatherlink.com 1.10,2013-05-17 03:25:00,
2013-05-16 20:40:00,64.9,55.0,29.89,West,274,0.0,3.0,71,0.00,,,0.00,weatherlink.com 1.10,2013-05-17 03:40:00,
2013-05-16 20:55:00,64.9,55.0,29.89,NW,312,1.0,3.0,71,0.00,,,0.00,weatherlink.com 1.10,2013-05-17 03:55:00,
2013-05-16 21:10:00,65.1,55.0,29.90,West,262,1.0,3.0,70,0.00,,,0.00,weatherlink.com 1.10,2013-05-17 04:10:00,
2013-05-16 21:25:00,64.8,55.0,29.90,SW,226,0.0,3.0,71,0.00,,,0.00,weatherlink.com 1.10,2013-05-17 04:25:00,
2013-05-16 21:40:00,64.4,55.0,29.89,ESE,109,1.0,2.0,72,0.00,,,0.00,weatherlink.com 1.10,2013-05-17 04:40:00,
2013-05-16 21:55:00,64.0,55.0,29.90,SW,234,1.0,3.0,73,0.00,,,0.00,weatherlink.com 1.10,2013-05-17 04:55:00,
2013-05-16 22:10:00,63.8,56.0,29.90,SSW,207,0.0,4.0,75,0.00,,,0.00,weatherlink.com 1.10,2013-05-17 05:10:00,
2013-05-16 22:25:00,63.6,56.0,29.90,SW,231,0.0,4.0,75,0.00,,,0.00,weatherlink.com 1.10,2013-05-17 05:25:00,
2013-05-16 22:40:00,63.6,56.0,29.90,WSW,238,1.0,4.0,75,0.00,,,0.00,weatherlink.com 1.10,2013-05-17 05:40:00,
2013-05-16 22:55:00,63.7,56.0,29.90,SW,231,1.0,3.0,75,0.00,,,0.00,weatherlink.com 1.10,2013-05-17 05:55:00,
2013-05-16 23:10:00,63.9,55.0,29.90,SW,231,1.0,3.0,74,0.00,,,0.00,weatherlink.com 1.10,2013-05-17 06:10:00,
2013-05-16 23:25:00,63.9,56.0,29.90,SW,225,0.0,2.0,75,0.00,,,0.00,weatherlink.com 1.10,2013-05-17 06:25:00,
2013-05-16 23:40:00,63.9,56.0,29.90,SW,219,0.0,3.0,75,0.00,,,0.00,weatherlink.com 1.10,2013-05-17 06:40:00,
2013-05-16 23:55:00,63.8,56.0,29.90,SSW,213,0.0,3.0,76,0.00,,,0.00,weatherlink.com 1.10,2013-05-17 06:55:00,